Time;durP1;ratioP1;P1;durP2;ratioP2;P2;SDS_P1;SDS_P2;PMS_P1;PMS_P2;Temp;Humidity;BMP_temperature;BMP_pressure;BME280_temperature;BME280_humidity;BME280_pressure;Samples;Min_cycle;Max_cycle;Signal;HPM_P1;HPM_P2
2022/06/28 00:01:27;;;;;;;17.15;3.60;;;;;;;17.02;57.84;102050.34;5154390;28;20437;-38
2022/06/28 00:04:00;;;;;;;10.48;2.85;;;;;;;17.02;57.92;102042.31;5156944;28;20771;-36
2022/06/28 00:06:33;;;;;;;12.07;2.92;;;;;;;17.02;57.89;102045.00;5155332;28;20428;-36
2022/06/28 00:09:05;;;;;;;16.10;3.30;;;;;;;16.99;58.06;102048.00;5161674;28;20434;-36
2022/06/28 00:11:38;;;;;;;18.87;4.00;;;;;;;16.95;58.20;102044.00;5163160;28;20405;-37
2022/06/28 00:16:58;;;;;;;15.25;2.80;;;;;;;16.91;58.32;102034.66;5147979;28;20916;-40
2022/06/28 00:19:32;;;;;;;14.25;3.40;;;;;;;16.96;58.21;102042.97;5162149;28;20479;-36
2022/06/28 00:22:05;;;;;;;9.27;2.60;;;;;;;16.96;58.35;102045.66;5160763;28;20434;-37
2022/06/28 00:24:37;;;;;;;13.15;3.17;;;;;;;16.94;58.47;102042.31;5157901;28;20487;-35
2022/06/28 00:27:10;;;;;;;15.20;3.38;;;;;;;16.90;58.49;102046.28;5152919;28;20411;-35
2022/06/28 00:29:42;;;;;;;15.88;3.25;;;;;;;16.89;58.52;102044.63;5153301;28;20417;-37
2022/06/28 00:32:15;;;;;;;13.40;2.72;;;;;;;16.86;58.63;102052.97;5160324;28;20436;-35
2022/06/28 00:34:49;;;;;;;13.45;3.17;;;;;;;16.78;58.63;102028.91;5149550;28;20416;-35
2022/06/28 00:37:21;;;;;;;15.00;3.72;;;;;;;16.85;58.79;102053.09;5150937;28;20906;-38
2022/06/28 00:39:54;;;;;;;11.57;3.13;;;;;;;16.83;58.87;102040.78;5156986;28;20507;-36
2022/06/28 00:42:26;;;;;;;18.03;3.87;;;;;;;16.80;58.85;102048.28;5149703;28;20433;-34
2022/06/28 00:44:59;;;;;;;19.40;3.63;;;;;;;16.81;58.88;102052.59;5161868;28;20430;-35
2022/06/28 00:47:34;;;;;;;15.38;2.80;;;;;;;16.73;59.03;102044.56;5158832;28;20428;-36
2022/06/28 00:50:11;;;;;;;12.50;3.45;;;;;;;16.75;59.12;102054.06;5165906;28;20419;-36
2022/06/28 00:53:05;;;;;;;10.80;3.25;;;;;;;16.68;59.02;102052.19;5161800;28;20452;-34
2022/06/28 00:55:38;;;;;;;13.68;3.40;;;;;;;16.67;59.34;102051.34;5142825;28;20421;-35
2022/06/28 00:58:11;;;;;;;10.60;3.03;;;;;;;16.69;59.28;102054.72;5148285;28;20851;-35
2022/06/28 01:00:46;;;;;;;13.73;3.27;;;;;;;16.62;59.37;102043.00;5153454;28;20522;-35
2022/06/28 01:03:25;;;;;;;13.40;3.15;;;;;;;16.58;59.37;102046.97;5150675;28;20406;-36
2022/06/28 01:05:58;;;;;;;11.55;3.60;;;;;;;16.62;59.45;102053.66;5158979;28;20810;-35
2022/06/28 01:08:31;;;;;;;14.57;3.30;;;;;;;16.62;59.66;102052.81;5145854;28;20777;-35
2022/06/28 01:11:18;;;;;;;13.77;3.30;;;;;;;16.59;59.67;102062.81;5162086;28;20434;-35
2022/06/28 01:13:55;;;;;;;18.95;3.67;;;;;;;16.54;59.63;102053.63;5134821;28;20752;-36
2022/06/28 01:16:29;;;;;;;15.65;3.13;;;;;;;16.57;59.74;102064.00;5155924;28;20428;-36
2022/06/28 01:19:02;;;;;;;19.05;3.65;;;;;;;16.54;59.79;102062.47;5160438;28;20448;-35
2022/06/28 01:21:37;;;;;;;19.75;3.55;;;;;;;16.53;59.81;102065.28;5163097;28;20427;-35
2022/06/28 01:24:14;;;;;;;15.60;3.30;;;;;;;16.48;59.85;102051.59;5160354;28;20424;-37
2022/06/28 01:26:47;;;;;;;18.02;3.60;;;;;;;16.50;59.96;102077.09;5158958;28;20417;-38
2022/06/28 01:29:20;;;;;;;13.73;2.85;;;;;;;16.47;59.94;102065.91;5158590;28;20427;-35
2022/06/28 01:31:53;;;;;;;15.07;3.67;;;;;;;16.01;59.92;102012.84;5160992;28;20427;-37
2022/06/28 01:34:25;;;;;;;12.68;3.22;;;;;;;16.43;60.07;102065.41;5160104;28;20914;-36
2022/06/28 01:36:58;;;;;;;11.68;2.83;;;;;;;16.41;60.15;102067.38;5160840;28;20836;-36
2022/06/28 01:39:32;;;;;;;8.57;2.78;;;;;;;16.38;60.27;102073.03;5160487;28;20507;-35
2022/06/28 01:42:05;;;;;;;8.95;2.60;;;;;;;16.31;60.27;102062.16;5157872;28;20503;-35
2022/06/28 01:44:39;;;;;;;12.02;2.97;;;;;;;16.35;60.38;102076.88;5158503;28;20483;-34
2022/06/28 01:47:13;;;;;;;15.30;3.58;;;;;;;16.35;60.49;102074.19;5159575;28;20758;-35
2022/06/28 01:49:45;;;;;;;14.93;3.00;;;;;;;16.29;60.45;102079.31;5158028;28;21136;-37
2022/06/28 01:52:18;;;;;;;16.30;3.80;;;;;;;15.83;60.42;102004.91;5144142;28;20409;-36
2022/06/28 01:54:52;;;;;;;20.13;3.92;;;;;;;16.30;60.57;102086.31;5154655;28;20448;-34
2022/06/28 01:57:24;;;;;;;16.38;3.15;;;;;;;16.33;60.60;102086.00;5157656;28;20428;-35
2022/06/28 01:59:57;;;;;;;12.48;3.28;;;;;;;16.31;60.57;102090.66;5154230;28;20416;-37
2022/06/28 02:02:29;;;;;;;12.40;3.15;;;;;;;16.23;60.59;102079.94;5162230;28;20421;-35
2022/06/28 02:05:02;;;;;;;13.43;2.88;;;;;;;16.23;60.94;102074.59;5162720;28;20433;-35
2022/06/28 02:07:34;;;;;;;13.02;2.80;;;;;;;16.18;60.72;102071.59;5152598;28;20429;-36
2022/06/28 02:10:09;;;;;;;19.15;3.58;;;;;;;16.23;60.90;102085.25;5160341;28;20427;-35
2022/06/28 02:12:42;;;;;;;15.45;3.80;;;;;;;16.21;60.96;102081.94;5159862;28;20491;-35
2022/06/28 02:15:15;;;;;;;12.20;3.40;;;;;;;16.21;60.93;102081.94;5158795;28;20465;-35
2022/06/28 02:17:47;;;;;;;17.88;4.22;;;;;;;16.05;60.92;102062.19;5143407;28;20521;-36
2022/06/28 02:20:20;;;;;;;13.50;3.95;;;;;;;16.22;61.03;102086.25;5158926;28;20448;-36
2022/06/28 02:22:52;;;;;;;16.25;3.60;;;;;;;16.21;60.95;102093.44;5151617;28;20430;-35
2022/06/28 02:25:26;;;;;;;17.15;3.95;;;;;;;16.20;61.01;102094.44;5161992;28;20911;-37
2022/06/28 02:27:59;;;;;;;10.85;3.47;;;;;;;16.19;61.05;102097.22;5162215;28;20434;-37
2022/06/28 02:30:31;;;;;;;15.10;3.03;;;;;;;16.16;61.02;102097.53;5156519;28;20422;-36
2022/06/28 02:33:04;;;;;;;10.85;2.65;;;;;;;16.12;61.33;102092.53;5159580;28;20436;-34
2022/06/28 02:41:19;;;;;;;17.00;3.97;;;;;;;16.08;61.22;102101.84;5165879;28;20412;-36
2022/06/28 02:43:51;;;;;;;17.88;4.03;;;;;;;16.07;61.41;102097.50;5155038;28;20746;-35
2022/06/28 02:46:24;;;;;;;16.75;3.13;;;;;;;16.03;61.37;102100.63;5156349;28;20414;-35
2022/06/28 02:48:57;;;;;;;17.10;3.60;;;;;;;16.04;61.50;102105.81;5156325;28;20424;-36
2022/06/28 02:51:29;;;;;;;13.05;3.25;;;;;;;16.03;61.43;102101.44;5157294;28;20534;-37
2022/06/28 02:54:02;;;;;;;14.63;3.53;;;;;;;16.00;61.48;102101.75;5159902;28;20412;-37
2022/06/28 02:56:37;;;;;;;11.52;3.03;;;;;;;16.01;61.50;102108.78;5157107;28;20427;-36
2022/06/28 02:59:10;;;;;;;13.60;2.90;;;;;;;16.02;61.56;102105.13;5156236;28;20417;-34
2022/06/28 03:01:43;;;;;;;15.02;3.40;;;;;;;15.99;61.61;102107.25;5157309;28;20453;-35
2022/06/28 03:04:15;;;;;;;21.42;3.88;;;;;;;15.99;61.60;102110.75;5155729;28;20403;-35
2022/06/28 03:06:48;;;;;;;20.33;3.50;;;;;;;15.98;61.64;102101.09;5145831;28;20485;-37
2022/06/28 03:09:20;;;;;;;13.95;4.03;;;;;;;15.84;61.75;102088.31;5142193;28;20434;-36
2022/06/28 03:11:54;;;;;;;17.52;4.35;;;;;;;15.98;61.65;102109.09;5144154;28;20456;-35
2022/06/28 03:14:27;;;;;;;17.77;3.90;;;;;;;15.98;61.63;102109.09;5153614;28;20839;-35
2022/06/28 03:17:01;;;;;;;19.42;3.40;;;;;;;15.93;61.63;102105.22;5155175;28;20427;-35
2022/06/28 03:19:33;;;;;;;18.45;3.70;;;;;;;15.96;61.78;102116.41;5159134;28;20994;-37
2022/06/28 03:22:06;;;;;;;20.35;3.65;;;;;;;15.94;61.69;102117.53;5153573;28;20423;-36
2022/06/28 03:24:38;;;;;;;21.13;4.40;;;;;;;15.96;61.71;102121.72;5159112;28;20428;-36
2022/06/28 03:27:12;;;;;;;21.10;4.07;;;;;;;15.91;61.88;102118.66;5156893;28;20417;-36
2022/06/28 03:29:44;;;;;;;18.13;4.10;;;;;;;15.88;61.87;102122.47;5160470;28;20423;-34
2022/06/28 03:32:17;;;;;;;13.95;3.70;;;;;;;15.95;61.88;102125.38;5146639;28;20490;-34
2022/06/28 03:34:49;;;;;;;19.67;4.88;;;;;;;15.87;61.90;102125.31;5151203;28;20723;-35
2022/06/28 03:37:22;;;;;;;22.30;6.50;;;;;;;15.90;62.12;102127.66;5154274;28;20445;-35
2022/06/28 03:39:54;;;;;;;16.58;3.95;;;;;;;15.86;62.05;102126.31;5161193;28;20488;-36
2022/06/28 03:42:28;;;;;;;27.83;4.65;;;;;;;15.90;62.06;102143.66;5158108;28;20849;-34
2022/06/28 03:45:00;;;;;;;15.25;3.42;;;;;;;15.83;62.11;102129.28;5158955;28;20508;-35
2022/06/28 03:47:36;;;;;;;20.70;4.53;;;;;;;15.85;62.08;102135.25;5157189;28;20453;-35
2022/06/28 03:50:09;;;;;;;19.52;4.25;;;;;;;15.87;62.10;102128.81;5163083;28;20444;-36
2022/06/28 03:52:42;;;;;;;18.40;5.23;;;;;;;15.63;62.22;102118.72;5157032;28;20422;-37
2022/06/28 03:55:14;;;;;;;19.43;4.23;;;;;;;15.92;61.98;102136.34;5159939;28;20431;-35
2022/06/28 03:57:48;;;;;;;19.40;4.88;;;;;;;15.90;62.37;102133.00;5153107;28;20719;-35
2022/06/28 04:00:21;;;;;;;15.43;4.47;;;;;;;15.99;62.14;102147.22;5162298;28;20983;-35
2022/06/28 04:02:53;;;;;;;19.27;4.78;;;;;;;15.97;62.28;102150.03;5162337;28;20919;-34
2022/06/28 04:05:26;;;;;;;18.20;3.75;;;;;;;16.00;62.22;102139.06;5155751;28;20428;-35
2022/06/28 04:07:59;;;;;;;22.42;4.22;;;;;;;16.01;62.33;102142.56;5157475;28;20449;-35
2022/06/28 04:10:31;;;;;;;15.38;3.40;;;;;;;16.02;62.29;102142.44;5161131;28;20429;-36
2022/06/28 04:13:05;;;;;;;20.50;4.28;;;;;;;15.91;62.28;102129.31;5161876;28;20436;-35
2022/06/28 04:15:38;;;;;;;18.83;4.60;;;;;;;16.06;62.25;102154.44;5156666;28;20405;-36
2022/06/28 04:18:11;;;;;;;17.27;3.97;;;;;;;16.06;62.36;102149.09;5165837;28;20788;-36
2022/06/28 04:20:44;;;;;;;14.55;3.28;;;;;;;16.06;62.37;102143.78;5160963;28;20488;-34
2022/06/28 04:23:17;;;;;;;13.20;2.80;;;;;;;16.11;62.19;102149.50;5154432;28;20438;-35
2022/06/28 04:25:49;;;;;;;19.83;2.90;;;;;;;16.10;62.29;102147.84;5160524;28;20508;-35
2022/06/28 04:28:23;;;;;;;17.33;3.63;;;;;;;16.11;62.23;102146.00;5167709;28;20449;-36
2022/06/28 04:30:55;;;;;;;13.80;4.18;;;;;;;15.96;62.34;102159.03;5165991;28;20419;-36
2022/06/28 04:33:28;;;;;;;19.35;3.88;;;;;;;16.22;62.21;102158.22;5156237;28;20534;-35
2022/06/28 04:36:01;;;;;;;14.60;3.60;;;;;;;16.24;62.21;102161.59;5158803;28;20412;-35
2022/06/28 04:38:33;;;;;;;13.63;3.60;;;;;;;16.29;62.30;102156.63;5154095;28;20615;-35
2022/06/28 04:41:06;;;;;;;14.90;3.53;;;;;;;16.33;62.26;102155.31;5151718;28;20426;-35
2022/06/28 04:43:39;;;;;;;16.05;3.30;;;;;;;16.37;62.30;102162.00;5154467;28;20409;-35
2022/06/28 04:46:12;;;;;;;10.48;2.55;;;;;;;16.37;62.27;102157.50;5152899;28;20513;-36
2022/06/28 04:48:44;;;;;;;16.30;3.35;;;;;;;16.28;62.11;102134.44;5159612;28;20991;-35
2022/06/28 04:51:17;;;;;;;11.95;3.60;;;;;;;16.44;62.25;102152.38;5166565;28;20578;-35
2022/06/28 04:53:50;;;;;;;18.45;3.60;;;;;;;16.50;62.18;102165.09;5149275;28;20410;-36
2022/06/28 04:56:24;;;;;;;17.52;3.65;;;;;;;16.45;62.04;102154.09;5154446;28;20473;-36
2022/06/28 04:58:58;;;;;;;16.67;3.73;;;;;;;16.56;62.27;102160.97;5151436;28;20513;-36
2022/06/28 05:01:31;;;;;;;17.55;4.00;;;;;;;16.62;62.14;102162.19;5160980;28;20537;-37
2022/06/28 05:04:03;;;;;;;14.65;3.33;;;;;;;16.68;61.95;102174.91;5170188;28;20421;-36
2022/06/28 05:06:35;;;;;;;17.25;3.58;;;;;;;16.74;61.98;102168.94;5166467;28;20416;-35
2022/06/28 05:09:08;;;;;;;12.40;3.15;;;;;;;17.21;61.42;102169.34;5167872;28;20409;-35
2022/06/28 05:11:41;;;;;;;16.70;3.95;;;;;;;18.55;60.24;102173.72;5168534;28;20755;-35
2022/06/28 05:14:14;;;;;;;17.00;3.00;;;;;;;19.96;58.67;102161.22;5169973;28;20487;-37
2022/06/28 05:16:47;;;;;;;11.88;3.03;;;;;;;21.27;57.16;102167.09;5164618;28;20925;-35
2022/06/28 05:19:19;;;;;;;12.00;3.00;;;;;;;22.44;55.99;102172.22;5163090;28;20511;-37
2022/06/28 05:21:57;;;;;;;16.75;3.80;;;;;;;23.44;54.63;102169.06;5168056;28;20854;-37
2022/06/28 05:24:29;;;;;;;11.23;3.20;;;;;;;24.26;53.71;102161.72;5170743;28;20510;-37
2022/06/28 05:27:05;;;;;;;14.45;3.03;;;;;;;25.25;52.32;102170.66;5161832;28;20417;-37
2022/06/28 05:29:39;;;;;;;20.38;3.38;;;;;;;26.30;50.72;102167.47;5168116;28;20431;-37
2022/06/28 05:32:12;;;;;;;11.75;3.00;;;;;;;27.11;49.45;102175.34;5167081;28;20409;-36
2022/06/28 05:34:44;;;;;;;22.17;3.33;;;;;;;27.86;48.21;102166.00;5160625;28;20492;-36
2022/06/28 05:37:17;;;;;;;14.30;3.13;;;;;;;28.32;47.34;102164.41;5163147;28;20414;-41
2022/06/28 05:39:49;;;;;;;13.27;3.03;;;;;;;28.76;46.67;102164.03;5156115;28;20506;-38
2022/06/28 05:42:22;;;;;;;10.02;2.97;;;;;;;29.16;45.53;102143.13;5152051;28;20426;-37
2022/06/28 05:44:55;;;;;;;14.57;3.95;;;;;;;29.79;44.46;102146.75;5150212;28;20815;-37
2022/06/28 05:47:28;;;;;;;14.77;3.45;;;;;;;30.27;43.99;102158.13;5154181;28;20509;-37
2022/06/28 05:50:00;;;;;;;18.40;3.42;;;;;;;30.70;42.97;102162.81;5150155;28;20566;-37
2022/06/28 05:52:33;;;;;;;17.27;3.55;;;;;;;31.24;42.09;102167.56;5153410;28;20425;-39
2022/06/28 05:55:06;;;;;;;14.17;3.20;;;;;;;31.87;41.27;102166.03;5153368;28;20517;-38
2022/06/28 05:57:38;;;;;;;15.18;3.42;;;;;;;32.30;40.52;102166.06;5154673;28;20414;-38
2022/06/28 06:00:13;;;;;;;11.77;2.77;;;;;;;32.46;39.56;102162.38;5148074;28;20414;-38
2022/06/28 06:02:46;;;;;;;12.52;3.47;;;;;;;32.51;39.33;102139.69;5149414;28;20397;-37
2022/06/28 06:05:18;;;;;;;15.35;3.58;;;;;;;32.86;38.44;102140.91;5154705;28;20833;-38
2022/06/28 06:07:51;;;;;;;11.85;2.85;;;;;;;33.34;37.94;102163.53;5150134;28;20424;-38
2022/06/28 06:10:23;;;;;;;13.07;2.87;;;;;;;33.44;37.86;102156.13;5152349;28;20497;-38
2022/06/28 06:12:56;;;;;;;11.95;2.90;;;;;;;33.47;37.45;102144.63;5158813;28;20863;-37
2022/06/28 06:15:30;;;;;;;16.23;3.42;;;;;;;33.50;37.34;102155.09;5162483;28;20428;-42
2022/06/28 06:18:03;;;;;;;20.60;3.53;;;;;;;33.84;36.54;102162.75;5163548;28;20536;-38
2022/06/28 06:20:35;;;;;;;10.23;2.60;;;;;;;34.20;36.21;102162.75;5160544;28;20424;-38
2022/06/28 06:23:08;;;;;;;15.32;3.17;;;;;;;34.51;35.68;102159.94;5165401;28;20413;-41
2022/06/28 06:25:41;;;;;;;14.90;3.47;;;;;;;35.14;34.69;102164.91;5163342;28;20471;-38
2022/06/28 06:28:13;;;;;;;15.63;3.25;;;;;;;35.59;34.23;102176.72;5165224;28;20699;-38
2022/06/28 06:30:47;;;;;;;12.20;2.60;;;;;;;35.52;33.80;102133.03;5163373;28;20475;-38
2022/06/28 06:33:20;;;;;;;10.85;2.97;;;;;;;36.07;33.51;102172.19;5159175;28;20842;-39
2022/06/28 06:35:52;;;;;;;12.00;2.97;;;;;;;36.46;33.09;102171.22;5160377;28;20512;-38
2022/06/28 06:38:24;;;;;;;15.23;3.40;;;;;;;36.79;32.42;102165.88;5156526;28;20491;-37
2022/06/28 06:40:59;;;;;;;13.65;2.67;;;;;;;36.99;32.09;102162.88;5164344;28;20452;-37
2022/06/28 06:43:32;;;;;;;15.10;3.63;;;;;;;37.19;31.79;102155.44;5159606;28;20448;-37
2022/06/28 06:46:05;;;;;;;15.35;3.17;;;;;;;37.25;31.82;102173.53;5164315;28;20444;-37
2022/06/28 06:48:38;;;;;;;12.20;2.75;;;;;;;37.25;31.63;102157.81;5159591;28;20427;-38
2022/06/28 06:51:11;;;;;;;20.77;3.40;;;;;;;37.31;31.25;102167.63;5161102;28;20427;-39
2022/06/28 06:53:43;;;;;;;14.32;3.72;;;;;;;37.30;31.06;102151.41;5157479;28;20435;-38
2022/06/28 06:56:16;;;;;;;12.97;3.10;;;;;;;37.19;30.79;102131.47;5158822;28;20485;-38
2022/06/28 06:58:49;;;;;;;16.40;2.97;;;;;;;37.60;30.44;102153.72;5145516;28;21254;-39
2022/06/28 07:01:28;;;;;;;14.82;3.15;;;;;;;37.61;30.56;102143.50;5152896;28;20439;-40
2022/06/28 07:04:01;;;;;;;14.60;3.10;;;;;;;37.96;30.45;102172.41;5151853;28;20432;-38
2022/06/28 07:06:34;;;;;;;11.80;2.78;;;;;;;37.96;30.14;102166.88;5157354;28;20504;-38
2022/06/28 07:09:07;;;;;;;11.15;2.53;;;;;;;37.60;30.15;102156.47;5156316;28;20800;-38
2022/06/28 07:11:40;;;;;;;10.23;2.90;;;;;;;37.41;30.23;102172.16;5149378;28;20510;-39
2022/06/28 07:14:12;;;;;;;12.52;2.30;;;;;;;37.43;30.31;102169.94;5127310;28;20445;-38
2022/06/28 07:16:46;;;;;;;15.27;3.55;;;;;;;37.13;30.36;102174.81;5146836;28;20422;-38
2022/06/28 07:19:19;;;;;;;11.27;2.90;;;;;;;36.94;30.60;102160.16;5131160;28;20427;-37
2022/06/28 07:21:51;;;;;;;12.63;2.88;;;;;;;36.84;30.45;102169.38;5145813;28;20765;-39
2022/06/28 07:24:26;;;;;;;12.80;3.25;;;;;;;36.40;30.39;102172.41;5145351;28;20420;-37
2022/06/28 07:26:59;;;;;;;11.60;2.95;;;;;;;36.18;30.55;102168.22;5146687;28;20947;-38
2022/06/28 07:29:31;;;;;;;14.32;3.00;;;;;;;36.16;30.54;102139.38;5148567;28;20430;-37
2022/06/28 07:32:06;;;;;;;13.00;2.63;;;;;;;36.54;29.93;102175.28;5145620;28;20744;-38
2022/06/28 07:34:39;;;;;;;15.35;3.08;;;;;;;36.65;29.92;102171.28;5149181;28;20428;-40
2022/06/28 07:37:11;;;;;;;12.63;2.42;;;;;;;36.63;29.85;102166.06;5142412;28;20816;-37
2022/06/28 07:39:44;;;;;;;8.87;2.50;;;;;;;36.89;29.77;102171.28;5151216;28;20462;-37
2022/06/28 07:42:17;;;;;;;12.02;3.15;;;;;;;37.02;29.81;102164.22;5151173;28;20958;-38
2022/06/28 07:44:49;;;;;;;12.97;2.50;;;;;;;36.84;29.83;102174.09;5140829;28;20422;-39
2022/06/28 07:47:23;;;;;;;14.55;2.75;;;;;;;36.47;30.26;102170.91;5154687;28;21254;-39
2022/06/28 07:52:45;;;;;;;9.30;2.20;;;;;;;35.37;30.88;102155.13;5145742;28;20795;-38
2022/06/28 07:55:18;;;;;;;14.65;2.70;;;;;;;35.58;30.71;102175.88;5148460;28;20486;-38
2022/06/28 07:57:50;;;;;;;17.05;2.92;;;;;;;35.37;30.62;102139.50;5147263;28;20514;-38
2022/06/28 08:00:23;;;;;;;11.60;2.80;;;;;;;35.40;30.55;102151.81;5153360;28;20460;-38
2022/06/28 08:02:57;;;;;;;15.40;2.40;;;;;;;35.52;30.43;102169.59;5155528;28;20452;-39
2022/06/28 08:05:29;;;;;;;11.50;2.40;;;;;;;35.19;30.35;102178.63;5156804;28;20436;-41
2022/06/28 08:08:02;;;;;;;7.75;2.20;;;;;;;34.49;30.73;102159.38;5158143;28;20849;-40
2022/06/28 08:10:37;;;;;;;8.43;2.28;;;;;;;33.86;31.29;102157.84;5153131;28;20440;-38
2022/06/28 08:13:12;;;;;;;12.00;2.57;;;;;;;33.23;31.51;102165.41;5147805;28;20463;-37
2022/06/28 08:15:45;;;;;;;12.73;2.40;;;;;;;33.05;31.73;102178.53;5153359;28;20730;-40
2022/06/28 08:18:20;;;;;;;8.40;2.33;;;;;;;32.82;32.23;102178.94;5159912;28;20426;-40
2022/06/28 08:20:52;;;;;;;12.20;2.28;;;;;;;32.93;31.91;102177.91;5153579;28;20582;-37
2022/06/28 08:23:25;;;;;;;16.17;2.45;;;;;;;32.87;31.67;102178.16;5158463;28;20439;-38
2022/06/28 08:25:57;;;;;;;9.88;2.35;;;;;;;32.65;32.00;102175.59;5155350;28;20421;-41
2022/06/28 08:28:30;;;;;;;10.57;2.43;;;;;;;32.15;32.01;102164.91;5153745;28;20442;-42
2022/06/28 08:31:02;;;;;;;13.88;2.78;;;;;;;31.84;31.93;102184.84;5154444;28;20563;-38
2022/06/28 08:33:36;;;;;;;14.32;2.75;;;;;;;31.17;32.51;102177.88;5153015;28;20470;-37
2022/06/28 08:36:09;;;;;;;9.73;2.53;;;;;;;30.64;32.76;102180.19;5154600;28;20413;-38
2022/06/28 08:38:41;;;;;;;13.40;2.35;;;;;;;30.34;32.86;102172.41;5154459;28;20439;-37
2022/06/28 08:41:13;;;;;;;12.85;2.17;;;;;;;30.09;32.80;102168.19;5153514;28;20452;-42
2022/06/28 08:43:46;;;;;;;8.32;1.83;;;;;;;30.03;32.92;102168.34;5156327;28;21013;-38
2022/06/28 08:46:19;;;;;;;11.07;2.33;;;;;;;29.98;32.63;102157.38;5165552;28;20420;-38
2022/06/28 08:48:58;;;;;;;12.10;2.53;;;;;;;29.94;32.74;102165.22;5162285;28;20808;-38
2022/06/28 08:51:33;;;;;;;12.57;2.15;;;;;;;29.84;32.66;102163.16;5162290;28;20840;-38
2022/06/28 08:54:05;;;;;;;11.25;1.83;;;;;;;29.85;32.65;102159.34;5162495;28;20424;-41
2022/06/28 08:56:39;;;;;;;12.93;2.40;;;;;;;29.94;32.57;102153.50;5160881;28;20409;-39
2022/06/28 08:59:14;;;;;;;11.35;2.47;;;;;;;29.85;32.38;102148.47;5162032;28;20429;-39
2022/06/28 09:01:46;;;;;;;9.77;2.40;;;;;;;29.67;32.54;102143.28;5165473;28;20528;-38
2022/06/28 09:04:20;;;;;;;11.82;1.80;;;;;;;29.65;32.43;102156.31;5163224;28;20935;-37
2022/06/28 09:06:53;;;;;;;7.23;2.07;;;;;;;29.41;32.72;102141.94;5164996;28;21348;-38
2022/06/28 09:09:25;;;;;;;9.82;2.25;;;;;;;29.15;33.01;102135.22;5165260;28;20433;-38
2022/06/28 09:11:58;;;;;;;11.60;2.20;;;;;;;28.53;33.29;102072.50;5163889;28;20614;-37
2022/06/28 09:14:34;;;;;;;11.65;2.63;;;;;;;28.70;33.32;102141.34;5165965;28;20451;-44
2022/06/28 09:17:23;;;;;;;10.65;2.03;;;;;;;28.82;33.16;102142.16;5166154;28;20949;-38
2022/06/28 09:20:00;;;;;;;8.73;2.10;;;;;;;28.86;32.80;102132.44;5161190;28;20421;-38
2022/06/28 09:22:37;;;;;;;8.73;2.20;;;;;;;28.46;32.80;102068.03;5164021;28;20598;-38
2022/06/28 09:25:14;;;;;;;6.18;1.63;;;;;;;29.02;32.50;102135.50;5166983;28;20452;-40
2022/06/28 09:27:46;;;;;;;8.52;2.35;;;;;;;29.08;32.30;102134.53;5160433;28;20515;-37
2022/06/28 09:30:21;;;;;;;10.95;2.63;;;;;;;29.29;32.34;102142.00;5158032;28;20475;-37
2022/06/28 09:32:53;;;;;;;6.30;1.90;;;;;;;29.49;31.57;102135.31;5156310;28;20508;-37
2022/06/28 09:35:27;;;;;;;7.55;2.15;;;;;;;29.69;31.36;102130.22;5164991;28;20435;-38
2022/06/28 09:38:00;;;;;;;8.35;1.80;;;;;;;29.55;31.48;102134.31;5158576;28;20478;-38
2022/06/28 09:40:32;;;;;;;10.25;2.10;;;;;;;29.55;31.48;102134.31;5157907;28;20467;-38
2022/06/28 09:43:10;;;;;;;8.27;2.38;;;;;;;29.63;31.33;102131.22;5152253;28;20437;-38
2022/06/28 09:45:46;;;;;;;11.23;2.08;;;;;;;29.15;31.26;102069.94;5159354;28;20428;-41
2022/06/28 09:48:21;;;;;;;9.02;1.92;;;;;;;29.39;31.35;102136.78;5148244;28;20408;-39
2022/06/28 09:51:00;;;;;;;9.25;1.85;;;;;;;29.31;31.48;102133.63;5151926;28;20435;-41
2022/06/28 09:53:35;;;;;;;10.00;1.85;;;;;;;29.19;31.46;102130.94;5159810;28;20436;-40
2022/06/28 09:56:09;;;;;;;8.85;2.40;;;;;;;29.19;31.31;102134.47;5160951;28;20424;-39
2022/06/28 09:58:42;;;;;;;7.55;2.33;;;;;;;29.15;31.20;102124.34;5150866;28;20848;-38
2022/06/28 10:01:14;;;;;;;8.43;2.15;;;;;;;29.08;31.36;102121.78;5127779;28;20476;-39
2022/06/28 10:03:48;;;;;;;12.18;1.50;;;;;;;28.93;31.76;102116.81;5133016;28;20412;-37
2022/06/28 10:06:22;;;;;;;9.30;2.03;;;;;;;29.02;31.59;102114.59;5136211;28;20420;-38
2022/06/28 10:08:55;;;;;;;8.85;2.22;;;;;;;28.98;31.50;102112.53;5133566;28;20907;-38
2022/06/28 10:15:00;;;;;;;10.55;2.50;;;;;;;28.91;31.63;102129.00;5137081;28;20815;-39
2022/06/28 10:17:43;;;;;;;11.52;2.22;;;;;;;29.03;31.35;102113.50;5143425;28;20422;-39
2022/06/28 10:20:20;;;;;;;10.27;1.77;;;;;;;29.18;30.98;102110.25;5113759;28;20424;-38
2022/06/28 10:23:36;;;;;;;6.10;2.20;;;;;;;29.49;30.69;102118.97;5138032;28;20775;-40
2022/06/28 10:26:12;;;;;;;9.45;2.58;;;;;;;29.50;30.77;102120.59;5149027;28;20901;-37
2022/06/28 10:28:47;;;;;;;8.13;2.20;;;;;;;29.51;30.55;102111.38;5135256;28;20413;-39
2022/06/28 10:31:42;;;;;;;9.03;1.97;;;;;;;29.52;30.54;102104.88;5141116;28;20430;-38
2022/06/28 10:34:17;;;;;;;7.72;2.20;;;;;;;29.52;30.57;102102.97;5125602;28;20501;-40
2022/06/28 10:36:53;;;;;;;13.88;1.92;;;;;;;29.60;30.46;102104.44;5128443;28;20963;-38
2022/06/28 10:39:33;;;;;;;9.35;2.28;;;;;;;29.54;30.50;102099.97;5124746;28;20436;-39
2022/06/28 10:42:13;;;;;;;11.38;2.13;;;;;;;29.56;30.47;102100.56;5130288;28;20929;-38
2022/06/28 10:44:48;;;;;;;8.95;1.92;;;;;;;29.61;30.49;102095.25;5131321;28;20439;-38
2022/06/28 10:47:20;;;;;;;13.10;2.38;;;;;;;29.64;30.35;102100.22;5113698;28;20432;-37
2022/06/28 10:49:57;;;;;;;10.05;2.25;;;;;;;29.79;30.17;102097.72;5124573;28;20565;-37
2022/06/28 10:52:33;;;;;;;9.35;1.80;;;;;;;30.00;29.96;102095.31;5123906;28;20527;-40
2022/06/28 10:55:31;;;;;;;9.93;1.88;;;;;;;30.06;29.74;102091.59;5133294;28;20426;-38
2022/06/28 10:58:09;;;;;;;11.68;2.17;;;;;;;29.91;29.80;102075.81;5121495;28;20458;-41
2022/06/28 11:00:54;;;;;;;9.63;1.88;;;;;;;29.97;29.89;102076.72;5156158;28;20495;-40
2022/06/28 11:03:27;;;;;;;10.53;1.90;;;;;;;29.95;29.79;102076.16;5154480;28;20409;-42
2022/06/28 11:05:59;;;;;;;8.65;2.17;;;;;;;29.83;29.64;102066.19;5159717;28;20472;-38
2022/06/28 11:08:49;;;;;;;6.13;1.58;;;;;;;29.70;30.19;102079.31;5160446;28;20953;-37
2022/06/28 11:11:23;;;;;;;6.65;1.85;;;;;;;29.49;30.22;102075.41;5153233;28;20401;-37
2022/06/28 11:14:29;;;;;;;7.18;2.20;;;;;;;29.45;30.36;102082.41;5148585;28;20421;-38
2022/06/28 11:17:02;;;;;;;13.93;2.22;;;;;;;29.50;30.14;102077.88;5156907;28;20785;-39
2022/06/28 11:19:35;;;;;;;10.10;2.07;;;;;;;29.57;30.00;102066.81;5158440;28;20452;-41
2022/06/28 11:22:08;;;;;;;4.63;1.98;;;;;;;29.38;30.26;102069.78;5156305;28;20523;-40
2022/06/28 11:24:45;;;;;;;9.43;2.00;;;;;;;29.18;30.53;102061.28;5160146;28;21098;-41
2022/06/28 11:27:22;;;;;;;5.10;1.60;;;;;;;28.98;30.58;102033.66;5161662;28;20869;-38
2022/06/28 11:30:05;;;;;;;10.90;2.05;;;;;;;29.30;30.39;102070.22;5156771;28;20832;-37
2022/06/28 11:32:39;;;;;;;9.40;2.13;;;;;;;29.44;30.25;102064.44;5157193;28;20520;-39
2022/06/28 11:35:14;;;;;;;6.13;2.13;;;;;;;29.59;30.08;102064.69;5156669;28;20431;-38
2022/06/28 11:37:50;;;;;;;10.27;2.30;;;;;;;29.88;29.98;102058.09;5154152;28;20920;-39
2022/06/28 11:40:26;;;;;;;6.60;1.80;;;;;;;29.84;30.09;102028.88;5152051;28;20839;-41
2022/06/28 11:43:05;;;;;;;7.15;1.80;;;;;;;29.99;30.01;102053.63;5154153;28;20610;-38
2022/06/28 11:45:40;;;;;;;11.77;2.00;;;;;;;29.98;30.03;102053.84;5156968;28;20878;-38
2022/06/28 11:48:16;;;;;;;12.23;2.42;;;;;;;29.97;30.05;102052.22;5155474;28;20437;-41
2022/06/28 11:50:53;;;;;;;7.78;1.88;;;;;;;30.02;30.00;102058.56;5149801;28;20435;-40
2022/06/28 11:53:29;;;;;;;9.95;2.63;;;;;;;30.05;30.15;102062.69;5150160;28;20429;-39
2022/06/28 11:56:01;;;;;;;11.40;2.30;;;;;;;30.22;30.07;102052.59;5150643;28;20936;-37
2022/06/28 11:58:37;;;;;;;7.57;1.80;;;;;;;30.42;29.75;102046.59;5152465;28;20523;-38
2022/06/28 12:01:12;;;;;;;7.18;1.90;;;;;;;30.36;30.00;102054.97;5160760;28;20816;-38
2022/06/28 12:04:10;;;;;;;10.23;1.90;;;;;;;30.22;30.03;102044.41;5158491;28;20889;-39
2022/06/28 12:06:43;;;;;;;7.47;2.30;;;;;;;30.19;29.98;102047.63;5137622;28;20515;-40